Weather at Abeid Amani Karume International Airport

Public forecast

Using degrees Celsius for public forecast. Weather courtesy of forecast.io.

Current aviation weather report (METAR) for Abeid Amani Karume International Airport

Report is more than 6 hours old.

2022/11/14 13:00 (retrieved 2 years ago)

HTZA 141300Z 12012KT 9999 SCT026 31/22 Q1011 NOSIG

Aviation forecast (TAF) for Abeid Amani Karume International Airport

Forecast is more than 12 hours old.

2023/02/22 18:00 (retrieved 1 year ago)

TAF HTZA 221700Z 2218/2318 06005KT 9999 FEW016 BECMG 2303/2305 36010KT BECMG 2311/2313 06015KT